sensor_id;sensor_type;location;lat;lon;timestamp;pressure;altitude;pressure_sealevel;temperature
64947;BMP280;51469;52.150;4.682;2023-11-19T00:00:54;100877.44;;;20.22
64947;BMP280;51469;52.150;4.682;2023-11-19T00:03:19;100871.78;;;20.50
64947;BMP280;51469;52.150;4.682;2023-11-19T00:05:45;100883.00;;;20.59
64947;BMP280;51469;52.150;4.682;2023-11-19T00:08:11;100878.34;;;20.44
64947;BMP280;51469;52.150;4.682;2023-11-19T00:10:36;100881.25;;;20.53
64947;BMP280;51469;52.150;4.682;2023-11-19T00:13:01;100886.50;;;20.26
64947;BMP280;51469;52.150;4.682;2023-11-19T00:15:28;100903.22;;;20.38
64947;BMP280;51469;52.150;4.682;2023-11-19T00:17:53;100918.31;;;20.12
64947;BMP280;51469;52.150;4.682;2023-11-19T00:20:20;100901.72;;;20.09
64947;BMP280;51469;52.150;4.682;2023-11-19T00:22:47;100892.94;;;20.23
64947;BMP280;51469;52.150;4.682;2023-11-19T00:25:19;100881.97;;;20.03
64947;BMP280;51469;52.150;4.682;2023-11-19T00:27:44;100875.16;;;19.92
64947;BMP280;51469;52.150;4.682;2023-11-19T00:30:10;100878.47;;;19.87
64947;BMP280;51469;52.150;4.682;2023-11-19T00:32:36;100875.63;;;20.03
64947;BMP280;51469;52.150;4.682;2023-11-19T00:35:04;100872.53;;;20.01
64947;BMP280;51469;52.150;4.682;2023-11-19T00:37:29;100880.31;;;20.06
64947;BMP280;51469;52.150;4.682;2023-11-19T00:39:55;100861.94;;;20.08
64947;BMP280;51469;52.150;4.682;2023-11-19T00:42:22;100870.72;;;20.07
64947;BMP280;51469;52.150;4.682;2023-11-19T00:44:47;100859.06;;;19.71
64947;BMP280;51469;52.150;4.682;2023-11-19T00:47:12;100867.75;;;19.73
64947;BMP280;51469;52.150;4.682;2023-11-19T00:49:38;100873.81;;;19.84
64947;BMP280;51469;52.150;4.682;2023-11-19T00:52:03;100872.91;;;19.87
64947;BMP280;51469;52.150;4.682;2023-11-19T00:54:29;100873.28;;;20.01
64947;BMP280;51469;52.150;4.682;2023-11-19T00:56:57;100861.47;;;20.10
64947;BMP280;51469;52.150;4.682;2023-11-19T00:59:23;100855.81;;;19.72
64947;BMP280;51469;52.150;4.682;2023-11-19T01:01:48;100832.19;;;19.52
64947;BMP280;51469;52.150;4.682;2023-11-19T01:04:14;100813.72;;;19.58
64947;BMP280;51469;52.150;4.682;2023-11-19T01:06:40;100845.38;;;19.76
64947;BMP280;51469;52.150;4.682;2023-11-19T01:09:07;100849.59;;;19.68
64947;BMP280;51469;52.150;4.682;2023-11-19T01:11:33;100833.47;;;19.76
64947;BMP280;51469;52.150;4.682;2023-11-19T01:13:59;100837.03;;;19.89
64947;BMP280;51469;52.150;4.682;2023-11-19T01:16:26;100828.44;;;19.71
64947;BMP280;51469;52.150;4.682;2023-11-19T01:18:51;100846.13;;;19.77
64947;BMP280;51469;52.150;4.682;2023-11-19T01:21:16;100837.78;;;19.64
64947;BMP280;51469;52.150;4.682;2023-11-19T01:23:42;100845.47;;;19.73
64947;BMP280;51469;52.150;4.682;2023-11-19T01:26:11;100809.13;;;19.64
64947;BMP280;51469;52.150;4.682;2023-11-19T01:28:38;100848.88;;;19.93
64947;BMP280;51469;52.150;4.682;2023-11-19T01:31:05;100854.09;;;19.91
64947;BMP280;51469;52.150;4.682;2023-11-19T01:33:30;100836.59;;;19.78
64947;BMP280;51469;52.150;4.682;2023-11-19T01:35:55;100846.66;;;19.88
64947;BMP280;51469;52.150;4.682;2023-11-19T01:38:24;100842.28;;;19.46
64947;BMP280;51469;52.150;4.682;2023-11-19T01:40:49;100841.88;;;19.60
64947;BMP280;51469;52.150;4.682;2023-11-19T01:43:34;100848.09;;;19.64
64947;BMP280;51469;52.150;4.682;2023-11-19T01:46:00;100853.09;;;19.28
64947;BMP280;51469;52.150;4.682;2023-11-19T01:48:26;100867.44;;;19.26
64947;BMP280;51469;52.150;4.682;2023-11-19T01:50:52;100861.31;;;19.19
64947;BMP280;51469;52.150;4.682;2023-11-19T01:53:18;100856.41;;;19.23
64947;BMP280;51469;52.150;4.682;2023-11-19T01:55:44;100854.66;;;19.29
64947;BMP280;51469;52.150;4.682;2023-11-19T01:58:11;100848.72;;;19.43
64947;BMP280;51469;52.150;4.682;2023-11-19T02:00:37;100837.41;;;19.05
64947;BMP280;51469;52.150;4.682;2023-11-19T02:03:05;100831.75;;;18.93
64947;BMP280;51469;52.150;4.682;2023-11-19T02:05:33;100849.63;;;19.08
64947;BMP280;51469;52.150;4.682;2023-11-19T02:08:00;100845.97;;;19.27
64947;BMP280;51469;52.150;4.682;2023-11-19T02:10:26;100855.03;;;19.15
64947;BMP280;51469;52.150;4.682;2023-11-19T02:12:51;100869.97;;;19.05
64947;BMP280;51469;52.150;4.682;2023-11-19T02:15:16;100869.78;;;19.28
64947;BMP280;51469;52.150;4.682;2023-11-19T02:17:44;100868.56;;;19.13
64947;BMP280;51469;52.150;4.682;2023-11-19T02:20:10;100859.53;;;19.25
64947;BMP280;51469;52.150;4.682;2023-11-19T02:22:37;100862.16;;;19.16
64947;BMP280;51469;52.150;4.682;2023-11-19T02:25:06;100864.38;;;19.21
64947;BMP280;51469;52.150;4.682;2023-11-19T02:30:04;100842.72;;;18.68
64947;BMP280;51469;52.150;4.682;2023-11-19T02:32:34;100841.59;;;18.97
64947;BMP280;51469;52.150;4.682;2023-11-19T02:35:01;100820.53;;;19.12
64947;BMP280;51469;52.150;4.682;2023-11-19T02:37:26;100822.47;;;18.83
64947;BMP280;51469;52.150;4.682;2023-11-19T02:39:53;100850.00;;;19.10
64947;BMP280;51469;52.150;4.682;2023-11-19T02:42:18;100850.44;;;19.08
64947;BMP280;51469;52.150;4.682;2023-11-19T02:44:45;100827.75;;;18.94
64947;BMP280;51469;52.150;4.682;2023-11-19T02:47:11;100845.50;;;18.84
64947;BMP280;51469;52.150;4.682;2023-11-19T02:49:36;100836.81;;;18.82
64947;BMP280;51469;52.150;4.682;2023-11-19T02:52:02;100843.06;;;19.02
64947;BMP280;51469;52.150;4.682;2023-11-19T02:54:30;100842.59;;;19.03
64947;BMP280;51469;52.150;4.682;2023-11-19T02:57:00;100836.38;;;18.99
64947;BMP280;51469;52.150;4.682;2023-11-19T02:59:26;100837.22;;;19.12
64947;BMP280;51469;52.150;4.682;2023-11-19T03:01:53;100847.91;;;19.14
64947;BMP280;51469;52.150;4.682;2023-11-19T03:04:19;100851.03;;;19.16
64947;BMP280;51469;52.150;4.682;2023-11-19T03:06:45;100851.03;;;19.16
64947;BMP280;51469;52.150;4.682;2023-11-19T03:09:11;100795.63;;;18.77
64947;BMP280;51469;52.150;4.682;2023-11-19T03:11:37;100834.38;;;18.84
64947;BMP280;51469;52.150;4.682;2023-11-19T03:14:02;100845.41;;;18.87
64947;BMP280;51469;52.150;4.682;2023-11-19T03:16:31;100837.25;;;18.64
64947;BMP280;51469;52.150;4.682;2023-11-19T03:18:57;100837.16;;;18.68
64947;BMP280;51469;52.150;4.682;2023-11-19T03:21:29;100840.66;;;18.88
64947;BMP280;51469;52.150;4.682;2023-11-19T03:23:54;100815.38;;;18.66
64947;BMP280;51469;52.150;4.682;2023-11-19T03:26:21;100821.88;;;18.92
64947;BMP280;51469;52.150;4.682;2023-11-19T03:28:47;100829.25;;;18.82
64947;BMP280;51469;52.150;4.682;2023-11-19T03:31:12;100813.00;;;18.97
64947;BMP280;51469;52.150;4.682;2023-11-19T03:33:38;100814.91;;;19.00
64947;BMP280;51469;52.150;4.682;2023-11-19T03:36:03;100802.31;;;18.95
64947;BMP280;51469;52.150;4.682;2023-11-19T03:38:28;100835.34;;;18.77
64947;BMP280;51469;52.150;4.682;2023-11-19T03:40:54;100844.28;;;19.01
64947;BMP280;51469;52.150;4.682;2023-11-19T03:43:19;100843.06;;;18.86
64947;BMP280;51469;52.150;4.682;2023-11-19T03:45:44;100844.44;;;18.94
64947;BMP280;51469;52.150;4.682;2023-11-19T03:48:10;100845.16;;;18.98
64947;BMP280;51469;52.150;4.682;2023-11-19T03:50:35;100838.03;;;18.97
64947;BMP280;51469;52.150;4.682;2023-11-19T03:53:00;100851.50;;;18.66
64947;BMP280;51469;52.150;4.682;2023-11-19T03:55:27;100854.19;;;18.86
64947;BMP280;51469;52.150;4.682;2023-11-19T03:57:52;100824.63;;;18.76
64947;BMP280;51469;52.150;4.682;2023-11-19T04:00:18;100837.50;;;18.70
64947;BMP280;51469;52.150;4.682;2023-11-19T04:02:46;100844.44;;;18.94
64947;BMP280;51469;52.150;4.682;2023-11-19T04:05:12;100852.59;;;18.85
64947;BMP280;51469;52.150;4.682;2023-11-19T04:07:37;100852.81;;;18.78
64947;BMP280;51469;52.150;4.682;2023-11-19T04:10:03;100857.94;;;18.79
64947;BMP280;51469;52.150;4.682;2023-11-19T04:12:29;100863.56;;;18.60
64947;BMP280;51469;52.150;4.682;2023-11-19T04:14:54;100867.38;;;18.66
64947;BMP280;51469;52.150;4.682;2023-11-19T04:17:20;100863.03;;;18.81
64947;BMP280;51469;52.150;4.682;2023-11-19T04:19:45;100861.84;;;18.66
64947;BMP280;51469;52.150;4.682;2023-11-19T04:22:10;100867.69;;;18.52
64947;BMP280;51469;52.150;4.682;2023-11-19T04:24:36;100867.38;;;18.66
64947;BMP280;51469;52.150;4.682;2023-11-19T04:27:02;100855.22;;;18.76
64947;BMP280;51469;52.150;4.682;2023-11-19T04:29:29;100846.53;;;18.74
64947;BMP280;51469;52.150;4.682;2023-11-19T04:31:55;100825.00;;;18.62
64947;BMP280;51469;52.150;4.682;2023-11-19T04:34:21;100849.78;;;18.37
64947;BMP280;51469;52.150;4.682;2023-11-19T04:36:46;100854.00;;;18.77
64947;BMP280;51469;52.150;4.682;2023-11-19T04:39:11;100843.84;;;18.86
64947;BMP280;51469;52.150;4.682;2023-11-19T04:41:48;100845.66;;;18.61
64947;BMP280;51469;52.150;4.682;2023-11-19T04:44:20;100839.75;;;18.75
64947;BMP280;51469;52.150;4.682;2023-11-19T04:46:45;100848.94;;;18.40
64947;BMP280;51469;52.150;4.682;2023-11-19T04:49:11;100839.91;;;18.52
64947;BMP280;51469;52.150;4.682;2023-11-19T04:51:40;100855.72;;;18.55
64947;BMP280;51469;52.150;4.682;2023-11-19T04:54:07;100827.75;;;18.30
64947;BMP280;51469;52.150;4.682;2023-11-19T04:56:34;100834.78;;;18.50
64947;BMP280;51469;52.150;4.682;2023-11-19T04:58:59;100873.97;;;18.56
64947;BMP280;51469;52.150;4.682;2023-11-19T05:01:25;100847.41;;;18.35
64947;BMP280;51469;52.150;4.682;2023-11-19T05:03:50;100858.69;;;18.48
64947;BMP280;51469;52.150;4.682;2023-11-19T05:06:16;100837.13;;;18.52
64947;BMP280;51469;52.150;4.682;2023-11-19T05:08:41;100861.47;;;18.64
64947;BMP280;51469;52.150;4.682;2023-11-19T05:11:06;100861.59;;;18.25
64947;BMP280;51469;52.150;4.682;2023-11-19T05:13:32;100860.81;;;18.05
64947;BMP280;51469;52.150;4.682;2023-11-19T05:15:57;100869.22;;;18.37
64947;BMP280;51469;52.150;4.682;2023-11-19T05:18:22;100853.94;;;18.29
64947;BMP280;51469;52.150;4.682;2023-11-19T05:20:48;100883.88;;;18.57
64947;BMP280;51469;52.150;4.682;2023-11-19T05:23:13;100868.88;;;18.70
64947;BMP280;51469;52.150;4.682;2023-11-19T05:25:39;100869.97;;;18.57
64947;BMP280;51469;52.150;4.682;2023-11-19T05:28:04;100875.69;;;18.50
64947;BMP280;51469;52.150;4.682;2023-11-19T05:30:30;100864.16;;;18.67
64947;BMP280;51469;52.150;4.682;2023-11-19T05:32:55;100872.63;;;18.44
64947;BMP280;51469;52.150;4.682;2023-11-19T05:35:20;100876.25;;;18.61
64947;BMP280;51469;52.150;4.682;2023-11-19T05:37:46;100880.97;;;18.44
64947;BMP280;51469;52.150;4.682;2023-11-19T05:40:11;100879.75;;;18.10
64947;BMP280;51469;52.150;4.682;2023-11-19T05:42:42;100857.75;;;18.35
64947;BMP280;51469;52.150;4.682;2023-11-19T05:45:11;100887.19;;;18.68
64947;BMP280;51469;52.150;4.682;2023-11-19T05:47:36;100874.59;;;18.28
64947;BMP280;51469;52.150;4.682;2023-11-19T05:50:02;100873.78;;;18.63
64947;BMP280;51469;52.150;4.682;2023-11-19T05:52:28;100868.63;;;18.10
64947;BMP280;51469;52.150;4.682;2023-11-19T05:54:58;100872.78;;;18.02
64947;BMP280;51469;52.150;4.682;2023-11-19T05:57:23;100856.91;;;18.38
64947;BMP280;51469;52.150;4.682;2023-11-19T05:59:50;100872.25;;;18.62
64947;BMP280;51469;52.150;4.682;2023-11-19T06:02:16;100843.38;;;18.40
64947;BMP280;51469;52.150;4.682;2023-11-19T06:04:41;100865.59;;;18.40
64947;BMP280;51469;52.150;4.682;2023-11-19T06:07:09;100861.50;;;18.28
64947;BMP280;51469;52.150;4.682;2023-11-19T06:09:34;100871.91;;;18.40
64947;BMP280;51469;52.150;4.682;2023-11-19T06:12:00;100875.53;;;18.57
64947;BMP280;51469;52.150;4.682;2023-11-19T06:14:27;100865.09;;;18.45
64947;BMP280;51469;52.150;4.682;2023-11-19T06:16:52;100877.56;;;18.37
64947;BMP280;51469;52.150;4.682;2023-11-19T06:19:18;100864.66;;;18.11
64947;BMP280;51469;52.150;4.682;2023-11-19T06:21:43;100857.06;;;18.31
64947;BMP280;51469;52.150;4.682;2023-11-19T06:24:09;100868.44;;;18.20
64947;BMP280;51469;52.150;4.682;2023-11-19T06:26:34;100884.44;;;17.93
64947;BMP280;51469;52.150;4.682;2023-11-19T06:29:00;100881.41;;;18.43
64947;BMP280;51469;52.150;4.682;2023-11-19T06:31:25;100878.44;;;18.34
64947;BMP280;51469;52.150;4.682;2023-11-19T06:33:50;100870.31;;;18.43
64947;BMP280;51469;52.150;4.682;2023-11-19T06:36:16;100865.44;;;18.47
64947;BMP280;51469;52.150;4.682;2023-11-19T06:38:42;100871.69;;;18.51
64947;BMP280;51469;52.150;4.682;2023-11-19T06:41:08;100888.38;;;18.51
64947;BMP280;51469;52.150;4.682;2023-11-19T06:43:34;100856.72;;;18.29
64947;BMP280;51469;52.150;4.682;2023-11-19T06:45:59;100875.47;;;17.86
64947;BMP280;51469;52.150;4.682;2023-11-19T06:48:25;100889.56;;;17.95
64947;BMP280;51469;52.150;4.682;2023-11-19T06:50:50;100888.25;;;18.19
64947;BMP280;51469;52.150;4.682;2023-11-19T06:53:16;100884.72;;;18.54
64947;BMP280;51469;52.150;4.682;2023-11-19T06:55:41;100881.31;;;18.11
64947;BMP280;51469;52.150;4.682;2023-11-19T06:58:06;100893.38;;;18.40
64947;BMP280;51469;52.150;4.682;2023-11-19T07:00:32;100897.13;;;18.49
64947;BMP280;51469;52.150;4.682;2023-11-19T07:02:58;100905.34;;;18.17
64947;BMP280;51469;52.150;4.682;2023-11-19T07:05:24;100888.53;;;18.44
64947;BMP280;51469;52.150;4.682;2023-11-19T07:07:50;100894.94;;;18.41
64947;BMP280;51469;52.150;4.682;2023-11-19T07:10:15;100889.84;;;18.20
64947;BMP280;51469;52.150;4.682;2023-11-19T07:12:41;100882.97;;;18.44
64947;BMP280;51469;52.150;4.682;2023-11-19T07:15:07;100874.78;;;18.37
64947;BMP280;51469;52.150;4.682;2023-11-19T07:17:33;100905.66;;;18.23
64947;BMP280;51469;52.150;4.682;2023-11-19T07:20:00;100906.69;;;18.29
64947;BMP280;51469;52.150;4.682;2023-11-19T07:22:26;100882.81;;;18.15
64947;BMP280;51469;52.150;4.682;2023-11-19T07:24:51;100907.75;;;18.35
64947;BMP280;51469;52.150;4.682;2023-11-19T07:27:18;100908.19;;;18.53
64947;BMP280;51469;52.150;4.682;2023-11-19T07:29:44;100879.66;;;18.49
64947;BMP280;51469;52.150;4.682;2023-11-19T07:32:10;100901.03;;;18.52
64947;BMP280;51469;52.150;4.682;2023-11-19T07:34:35;100912.88;;;18.56
64947;BMP280;51469;52.150;4.682;2023-11-19T07:37:01;100894.38;;;18.65
64947;BMP280;51469;52.150;4.682;2023-11-19T07:39:28;100900.75;;;18.66
64947;BMP280;51469;52.150;4.682;2023-11-19T07:41:53;100899.63;;;18.79
64947;BMP280;51469;52.150;4.682;2023-11-19T07:44:19;100910.19;;;18.68
64947;BMP280;51469;52.150;4.682;2023-11-19T07:46:46;100898.66;;;18.86
64947;BMP280;51469;52.150;4.682;2023-11-19T07:49:13;100924.28;;;19.09
64947;BMP280;51469;52.150;4.682;2023-11-19T07:51:38;100890.41;;;18.82
64947;BMP280;51469;52.150;4.682;2023-11-19T07:54:04;100896.41;;;18.81
64947;BMP280;51469;52.150;4.682;2023-11-19T07:56:29;100904.91;;;18.90
64947;BMP280;51469;52.150;4.682;2023-11-19T07:58:54;100900.94;;;18.91
64947;BMP280;51469;52.150;4.682;2023-11-19T08:01:20;100907.88;;;18.99
64947;BMP280;51469;52.150;4.682;2023-11-19T08:03:45;100905.25;;;19.08
64947;BMP280;51469;52.150;4.682;2023-11-19T08:06:11;100898.06;;;19.10
64947;BMP280;51469;52.150;4.682;2023-11-19T08:08:36;100896.41;;;18.81
64947;BMP280;51469;52.150;4.682;2023-11-19T08:11:03;100911.88;;;18.98
64947;BMP280;51469;52.150;4.682;2023-11-19T08:13:30;100909.44;;;18.84
64947;BMP280;51469;52.150;4.682;2023-11-19T08:15:56;100917.34;;;19.01
64947;BMP280;51469;52.150;4.682;2023-11-19T08:18:23;100921.00;;;18.82
64947;BMP280;51469;52.150;4.682;2023-11-19T08:20:49;100901.28;;;18.93
64947;BMP280;51469;52.150;4.682;2023-11-19T08:23:18;100904.41;;;18.79
64947;BMP280;51469;52.150;4.682;2023-11-19T08:25:43;100920.06;;;18.89
64947;BMP280;51469;52.150;4.682;2023-11-19T08:28:09;100901.94;;;18.81
64947;BMP280;51469;52.150;4.682;2023-11-19T08:30:35;100919.00;;;18.99
64947;BMP280;51469;52.150;4.682;2023-11-19T08:33:00;100908.75;;;19.28
64947;BMP280;51469;52.150;4.682;2023-11-19T08:35:28;100904.72;;;19.13
64947;BMP280;51469;52.150;4.682;2023-11-19T08:37:53;100907.66;;;19.38
64947;BMP280;51469;52.150;4.682;2023-11-19T08:40:19;100910.09;;;18.72
64947;BMP280;51469;52.150;4.682;2023-11-19T08:42:45;100914.47;;;19.05
64947;BMP280;51469;52.150;4.682;2023-11-19T08:45:10;100916.72;;;19.26
64947;BMP280;51469;52.150;4.682;2023-11-19T08:47:37;100918.50;;;19.20
64947;BMP280;51469;52.150;4.682;2023-11-19T08:50:02;100915.00;;;19.32
64947;BMP280;51469;52.150;4.682;2023-11-19T08:52:29;100921.59;;;19.22
64947;BMP280;51469;52.150;4.682;2023-11-19T08:54:54;100909.75;;;19.50
64947;BMP280;51469;52.150;4.682;2023-11-19T08:57:20;100907.66;;;19.38
64947;BMP280;51469;52.150;4.682;2023-11-19T08:59:45;100916.56;;;19.33
64947;BMP280;51469;52.150;4.682;2023-11-19T09:02:11;100903.25;;;19.24
64947;BMP280;51469;52.150;4.682;2023-11-19T09:04:36;100906.34;;;19.42
64947;BMP280;51469;52.150;4.682;2023-11-19T09:07:02;100907.38;;;19.77
64947;BMP280;51469;52.150;4.682;2023-11-19T09:09:28;100903.00;;;19.63
64947;BMP280;51469;52.150;4.682;2023-11-19T09:11:53;100908.66;;;19.76
64947;BMP280;51469;52.150;4.682;2023-11-19T09:14:19;100903.47;;;19.62
64947;BMP280;51469;52.150;4.682;2023-11-19T09:16:49;100915.00;;;19.32
64947;BMP280;51469;52.150;4.682;2023-11-19T09:19:14;100891.75;;;19.38
64947;BMP280;51469;52.150;4.682;2023-11-19T09:21:40;100913.84;;;19.74
64947;BMP280;51469;52.150;4.682;2023-11-19T09:24:05;100908.97;;;19.78
64947;BMP280;51469;52.150;4.682;2023-11-19T09:26:32;100888.34;;;20.04
64947;BMP280;51469;52.150;4.682;2023-11-19T09:28:58;100898.50;;;19.82
64947;BMP280;51469;52.150;4.682;2023-11-19T09:31:23;100890.66;;;19.64
64947;BMP280;51469;52.150;4.682;2023-11-19T09:33:49;100901.00;;;19.80
64947;BMP280;51469;52.150;4.682;2023-11-19T09:36:15;100903.22;;;19.85
64947;BMP280;51469;52.150;4.682;2023-11-19T09:38:42;100890.81;;;19.73
64947;BMP280;51469;52.150;4.682;2023-11-19T09:41:09;100887.16;;;19.89
64947;BMP280;51469;52.150;4.682;2023-11-19T09:43:35;100891.13;;;19.63
64947;BMP280;51469;52.150;4.682;2023-11-19T09:46:05;100903.13;;;19.60
64947;BMP280;51469;52.150;4.682;2023-11-19T09:48:35;100899.78;;;19.65
64947;BMP280;51469;52.150;4.682;2023-11-19T09:51:02;100912.19;;;19.76
64947;BMP280;51469;52.150;4.682;2023-11-19T09:53:29;100906.66;;;19.60
64947;BMP280;51469;52.150;4.682;2023-11-19T09:55:55;100907.28;;;20.09
64947;BMP280;51469;52.150;4.682;2023-11-19T09:58:21;100895.34;;;20.08
64947;BMP280;51469;52.150;4.682;2023-11-19T10:00:47;100894.00;;;20.00
64947;BMP280;51469;52.150;4.682;2023-11-19T10:03:13;100881.41;;;19.96
64947;BMP280;51469;52.150;4.682;2023-11-19T10:05:39;100908.28;;;19.74
64947;BMP280;51469;52.150;4.682;2023-11-19T10:08:05;100869.81;;;20.10
64947;BMP280;51469;52.150;4.682;2023-11-19T10:10:31;100917.31;;;20.19
64947;BMP280;51469;52.150;4.682;2023-11-19T10:12:57;100909.91;;;19.87
64947;BMP280;51469;52.150;4.682;2023-11-19T10:15:24;100906.28;;;19.74
64947;BMP280;51469;52.150;4.682;2023-11-19T10:17:57;100902.47;;;19.40
64947;BMP280;51469;52.150;4.682;2023-11-19T10:20:22;100890.91;;;19.70
64947;BMP280;51469;52.150;4.682;2023-11-19T10:22:48;100891.44;;;20.06
64947;BMP280;51469;52.150;4.682;2023-11-19T10:25:27;100891.94;;;20.17
64947;BMP280;51469;52.150;4.682;2023-11-19T10:27:53;100873.06;;;19.96
64947;BMP280;51469;52.150;4.682;2023-11-19T10:30:26;100899.25;;;19.70
64947;BMP280;51469;52.150;4.682;2023-11-19T10:33:13;100873.66;;;20.16
64947;BMP280;51469;52.150;4.682;2023-11-19T10:35:54;100879.28;;;20.00
64947;BMP280;51469;52.150;4.682;2023-11-19T10:38:20;100872.53;;;20.01
64947;BMP280;51469;52.150;4.682;2023-11-19T10:40:47;100873.59;;;19.91
64947;BMP280;51469;52.150;4.682;2023-11-19T10:43:13;100874.06;;;20.02
64947;BMP280;51469;52.150;4.682;2023-11-19T10:45:39;100885.34;;;20.23
64947;BMP280;51469;52.150;4.682;2023-11-19T10:48:05;100883.13;;;20.68
64947;BMP280;51469;52.150;4.682;2023-11-19T10:50:35;100884.47;;;20.76
64947;BMP280;51469;52.150;4.682;2023-11-19T10:53:02;100874.09;;;20.27
64947;BMP280;51469;52.150;4.682;2023-11-19T10:55:30;100889.94;;;20.30
64947;BMP280;51469;52.150;4.682;2023-11-19T10:58:04;100887.91;;;20.43
64947;BMP280;51469;52.150;4.682;2023-11-19T11:00:54;100886.81;;;20.40
64947;BMP280;51469;52.150;4.682;2023-11-19T11:03:20;100889.19;;;20.29
64947;BMP280;51469;52.150;4.682;2023-11-19T11:05:53;100883.13;;;20.31
64947;BMP280;51469;52.150;4.682;2023-11-19T11:08:19;100894.88;;;20.51
64947;BMP280;51469;52.150;4.682;2023-11-19T11:11:03;100899.06;;;20.68
64947;BMP280;51469;52.150;4.682;2023-11-19T11:13:31;100882.28;;;20.59
64947;BMP280;51469;52.150;4.682;2023-11-19T11:15:57;100896.31;;;20.30
64947;BMP280;51469;52.150;4.682;2023-11-19T11:18:24;100881.31;;;20.12
64947;BMP280;51469;52.150;4.682;2023-11-19T11:20:52;100880.13;;;20.38
64947;BMP280;51469;52.150;4.682;2023-11-19T11:26:35;100870.22;;;20.37
64947;BMP280;51469;52.150;4.682;2023-11-19T11:29:10;100852.59;;;20.52
64947;BMP280;51469;52.150;4.682;2023-11-19T11:31:56;100869.66;;;20.67
64947;BMP280;51469;52.150;4.682;2023-11-19T11:34:43;100861.94;;;20.71
64947;BMP280;51469;52.150;4.682;2023-11-19T11:39:57;100849.00;;;20.77
64947;BMP280;51469;52.150;4.682;2023-11-19T11:45:06;100859.84;;;20.50
64947;BMP280;51469;52.150;4.682;2023-11-19T11:50:14;100845.34;;;20.30
64947;BMP280;51469;52.150;4.682;2023-11-19T11:55:27;100837.88;;;20.52
64947;BMP280;51469;52.150;4.682;2023-11-19T11:57:56;100832.16;;;20.68
64947;BMP280;51469;52.150;4.682;2023-11-19T12:00:22;100837.31;;;20.44
64947;BMP280;51469;52.150;4.682;2023-11-19T12:02:49;100843.31;;;20.43
64947;BMP280;51469;52.150;4.682;2023-11-19T12:05:15;100827.06;;;20.16
64947;BMP280;51469;52.150;4.682;2023-11-19T12:07:40;100859.47;;;20.85
64947;BMP280;51469;52.150;4.682;2023-11-19T12:10:07;100854.03;;;20.57
64947;BMP280;51469;52.150;4.682;2023-11-19T12:12:33;100845.34;;;20.30
64947;BMP280;51469;52.150;4.682;2023-11-19T12:15:02;100850.59;;;20.40
64947;BMP280;51469;52.150;4.682;2023-11-19T12:20:05;100836.88;;;20.58
64947;BMP280;51469;52.150;4.682;2023-11-19T12:22:35;100839.00;;;20.54
64947;BMP280;51469;52.150;4.682;2023-11-19T12:25:02;100853.34;;;20.03
64947;BMP280;51469;52.150;4.682;2023-11-19T12:27:29;100869.13;;;20.34
64947;BMP280;51469;52.150;4.682;2023-11-19T12:29:54;100867.00;;;20.26
64947;BMP280;51469;52.150;4.682;2023-11-19T12:32:22;100856.59;;;20.51
64947;BMP280;51469;52.150;4.682;2023-11-19T12:34:47;100844.44;;;20.33
64947;BMP280;51469;52.150;4.682;2023-11-19T12:37:13;100844.06;;;19.93
64947;BMP280;51469;52.150;4.682;2023-11-19T12:39:39;100844.22;;;20.40
64947;BMP280;51469;52.150;4.682;2023-11-19T12:42:05;100859.97;;;20.46
64947;BMP280;51469;52.150;4.682;2023-11-19T12:44:30;100864.88;;;20.55
64947;BMP280;51469;52.150;4.682;2023-11-19T12:47:06;100859.38;;;20.51
64947;BMP280;51469;52.150;4.682;2023-11-19T12:49:32;100835.09;;;20.27
64947;BMP280;51469;52.150;4.682;2023-11-19T12:51:58;100862.16;;;20.51
64947;BMP280;51469;52.150;4.682;2023-11-19T12:54:35;100850.28;;;20.51
64947;BMP280;51469;52.150;4.682;2023-11-19T12:57:01;100849.81;;;20.52
64947;BMP280;51469;52.150;4.682;2023-11-19T12:59:26;100848.25;;;20.64
64947;BMP280;51469;52.150;4.682;2023-11-19T13:01:59;100856.06;;;20.44
64947;BMP280;51469;52.150;4.682;2023-11-19T13:04:29;100827.97;;;20.38
64947;BMP280;51469;52.150;4.682;2023-11-19T13:06:57;100828.00;;;20.26
64947;BMP280;51469;52.150;4.682;2023-11-19T13:11:48;100844.91;;;20.44
64947;BMP280;51469;52.150;4.682;2023-11-19T13:14:13;100850.22;;;20.63
64947;BMP280;51469;52.150;4.682;2023-11-19T13:16:39;100854.47;;;20.43
64947;BMP280;51469;52.150;4.682;2023-11-19T13:19:04;100850.94;;;20.30
64947;BMP280;51469;52.150;4.682;2023-11-19T13:21:30;100840.47;;;20.59
64947;BMP280;51469;52.150;4.682;2023-11-19T13:23:55;100855.94;;;20.22
64947;BMP280;51469;52.150;4.682;2023-11-19T13:26:22;100860.03;;;20.68
64947;BMP280;51469;52.150;4.682;2023-11-19T13:28:47;100849.66;;;20.81
64947;BMP280;51469;52.150;4.682;2023-11-19T13:31:12;100843.84;;;20.88
64947;BMP280;51469;52.150;4.682;2023-11-19T13:33:38;100835.38;;;20.79
64947;BMP280;51469;52.150;4.682;2023-11-19T13:36:04;100859.50;;;20.60
64947;BMP280;51469;52.150;4.682;2023-11-19T13:38:33;100819.66;;;20.85
64947;BMP280;51469;52.150;4.682;2023-11-19T13:41:00;100845.56;;;20.23
64947;BMP280;51469;52.150;4.682;2023-11-19T13:43:26;100831.03;;;20.78
64947;BMP280;51469;52.150;4.682;2023-11-19T13:45:53;100840.59;;;21.02
64947;BMP280;51469;52.150;4.682;2023-11-19T13:48:19;100830.88;;;20.94
64947;BMP280;51469;52.150;4.682;2023-11-19T13:50:44;100834.59;;;21.12
64947;BMP280;51469;52.150;4.682;2023-11-19T13:53:10;100825.22;;;21.19
64947;BMP280;51469;52.150;4.682;2023-11-19T13:55:35;100846.31;;;21.20
64947;BMP280;51469;52.150;4.682;2023-11-19T13:58:01;100834.97;;;20.43
64947;BMP280;51469;52.150;4.682;2023-11-19T14:00:26;100838.22;;;20.54
64947;BMP280;51469;52.150;4.682;2023-11-19T14:02:51;100838.22;;;20.54
64947;BMP280;51469;52.150;4.682;2023-11-19T14:05:17;100829.75;;;20.45
64947;BMP280;51469;52.150;4.682;2023-11-19T14:07:43;100842.31;;;20.74
64947;BMP280;51469;52.150;4.682;2023-11-19T14:10:09;100849.78;;;20.65
64947;BMP280;51469;52.150;4.682;2023-11-19T14:12:36;100824.63;;;20.31
64947;BMP280;51469;52.150;4.682;2023-11-19T14:15:03;100825.50;;;20.53